Home   Weather   New Zealand   Auckland   Past weeks
Flag for New Zealand

Past Weather in Auckland, New Zealand — January 2017

Currently: 52 °F. Rain. Mostly cloudy. (Weather station: Auckland Airport, New Zealand). See more current weather

January 2017 Weather in Auckland — Graph

°F

High & Low Weather Summary for January 2017

 TemperatureHumidityPressure
High77 °F (Jan 3, 3:30 pm)100% (Jan 3, 8:30 am)30.18 "Hg (Jan 3, 8:30 am)
Low50 °F (Jan 6, 5:00 am)40% (Jan 5, 10:00 am)29.39 "Hg (Jan 22, 5:00 am)
Average66 °F72%29.90 "Hg
* Reported Jan 1 12:00 am — Jan 31 11:30 pm, Auckland. Weather by CustomWeather, © 2024

Note: Actual official high and low records may vary slightly from our data, if they occured in-between our weather recording intervals... More about our weather records

Auckland Weather History for January 1, 2017

Scroll right to see more
 ConditionsComfort  
Time TempWeatherWind HumidityBarometerVisibility
12:00 am
Sun, Jan 1
64 °FPassing clouds.3 mph73%29.95 "HgN/A
12:30 am64 °FPassing clouds.3 mph73%29.95 "HgN/A
1:00 am61 °FPassing clouds.5 mph83%29.95 "HgN/A
1:30 am63 °FOvercast.6 mph77%29.95 "HgN/A
2:00 am63 °FOvercast.5 mph77%29.92 "HgN/A
2:30 am63 °FPassing clouds.5 mph83%29.92 "HgN/A
3:00 am61 °FPassing clouds.5 mph88%29.92 "HgN/A
3:30 am63 °FPassing clouds.5 mph88%29.92 "HgN/A
4:00 am61 °FPassing clouds.2 mph94%29.92 "HgN/A
4:30 am61 °FPassing clouds.5 mph88%29.89 "HgN/A
5:00 am61 °FCool.5 mph88%29.89 "HgN/A
5:30 am61 °FCool.3 mph88%29.89 "HgN/A
6:00 am61 °FCool.3 mph88%29.92 "HgN/A
6:30 am59 °FCool.3 mph94%29.92 "HgN/A
7:00 am63 °FMild.3 mph83%29.92 "HgN/A
7:30 am63 °FMild.3 mph83%29.92 "HgN/A
8:00 am64 °FMild.3 mph83%29.92 "HgN/A
8:30 am64 °FMild.5 mph83%29.92 "HgN/A
9:00 am68 °FPassing clouds.8 mph73%29.95 "HgN/A
9:30 am68 °FScattered clouds.12 mph69%29.95 "HgN/A
10:00 am72 °FMild.10 mph65%29.95 "HgN/A
10:30 am70 °FMild.12 mph64%29.95 "HgN/A
11:00 am72 °FMild.12 mph61%29.95 "HgN/A
11:30 am73 °FPassing clouds.13 mph50%29.92 "HgN/A
12:00 pm73 °FMild.15 mph53%29.92 "HgN/A
12:30 pm73 °FMild.14 mph53%29.92 "HgN/A
1:00 pm75 °FMild.12 mph47%29.92 "HgN/A
1:30 pm75 °FScattered clouds.15 mph47%29.92 "HgN/A
2:00 pm72 °FMild.17 mph57%29.92 "HgN/A
2:30 pm70 °FMild.15 mph60%29.92 "HgN/A
3:00 pm70 °FMild.15 mph60%29.92 "HgN/A
3:30 pm73 °FPassing clouds.9 mph57%29.89 "HgN/A
4:00 pm73 °FMild.13 mph53%29.89 "HgN/A
4:30 pm73 °FPassing clouds.13 mph57%29.89 "HgN/A
5:00 pm73 °FMild.13 mph53%29.89 "HgN/A
5:30 pm73 °FPartly sunny.15 mph57%29.86 "HgN/A
6:00 pm73 °FMild.14 mph53%29.86 "HgN/A
6:30 pm73 °FMild.14 mph53%29.86 "HgN/A
7:00 pm72 °FMild.9 mph57%29.86 "HgN/A
7:30 pm72 °FMild.10 mph53%29.86 "HgN/A
8:00 pm70 °FMild.10 mph57%29.86 "HgN/A
8:30 pm68 °FMild.14 mph69%29.86 "HgN/A
9:00 pm68 °FMild.12 mph69%29.86 "HgN/A
9:30 pm66 °FMild.9 mph78%29.86 "HgN/A
10:00 pm66 °FMild.9 mph78%29.86 "HgN/A
10:30 pm66 °FMild.9 mph78%29.89 "HgN/A
11:00 pm64 °FMild.7 mph83%29.89 "HgN/A
11:30 pm64 °FMild.7 mph83%29.89 "HgN/A
Weather by CustomWeather, © 2024

See weather overview